首页
METAR-TAF:

METAR-TAF

机场 :

哥伦比亚, 南卡罗来纳州, 美国

纬度: 33-58-15N, 经度: 080-59-40W, 海拔: 64米

当前天气观测

该预报发布于18分钟前的14:04 UTC
风速3节,风向多变
温度 20°C
湿度 88%
气压 1012 hPa
能見度: 16.1公里
散云层高于600英尺
阴天层高于1300英尺

METAR: KCUB 241404Z AUTO VRB03KT 10SM SCT006 OVC013 20/18 A2987 RMK AO2 T02000183

时间: 10:22 (14:22 UTC)

预报

该预报发布于16分钟前的14:06 UTC
预报有效从24日的 14点(UTC)到 25日的 12点(UTC)
风速6节,风向东转东南
能見度: 10公里
散云层高于300英尺
阴天层高于1200英尺
短暂存在
从 24日的 14点(UTC)到 24日的 15点(UTC)
能見度: 6.4公里
多云层高于400英尺
轻雾
从 24日的 1500点(UTC)
风速7节,风向南转西南
能見度: 10公里
多云层高于2500英尺
从 24日的 1800点(UTC)
风速8节,风向西南
能見度: 10公里
散云层高于3000英尺
多云层高于5000英尺
从 25日的 0100点(UTC)
风速6节,风向西南
能見度: 10公里
多云层高于10000英尺

TAF: KCUB 241406Z 2414/2512 12006KT P6SM SCT003 OVC012 TEMPO 2414/2415 4SM BR BKN004 FM241500 20007KT P6SM BKN025 FM241800 23008KT P6SM SCT030 BKN050 FM250100 23006KT P6SM BKN100

超过4000个机场的气象观测和天气预报(METAR&TAF报告)。

可查询的气象台以黄色和红色小点在地图上表示。

将鼠标移到小点上方,可查看气象台名称。

然后点击查看天气观测和预报。

如需切换地图:点击带黑十字的绿色按钮放大地图;点击带横线的绿色按钮缩小地图;或者点击绿色箭头查看邻近地区的地图。


METAR-TAF: